Flugplatz Donzdorf

Für EDPM sind keine METAR/TAF Berichte vorhanden.
Es werden die Flugwettermeldungen vom Flugplatz Stuttgart in 45 km Entfernung angezeigt.

Bericht für EDDS

vom 25.01. um 23:20 UTC

variable Windrichtung mit 1 kt

Sichtweite 10 km oder mehr

gute Sicht, keine Wolken < 5000 ft, keine CB, keine Wettererscheinungen (CAVOK)

Temperatur -1.0°C

Taupunkt -2.0°C

Luftfeuchtigkeit 93%

Luftdruck 1020 hPa

EDDS 252320Z VRB01KT CAVOK M01/M02 Q1020

Prognose für EDDS

vom 25.01. um 00:00 UTC

Zwischen 00:00 UTC und 00:00 UTC

variable Windrichtung mit 2 kt

Sichtweite 10 km oder mehr

keine signifikanten Wettererscheinungen

keine Wolken


Zwischen 00:00 UTC und 00:00 UTC zeitweise mit einer Wahrscheinlichkeit von 30%

Sichtweite 400 m

Code: FZFG

aufgebrochene Bewölkung in 100 ft

TAF EDDS 252300Z 2600/2624 VRB02KT CAVOK PROB30 TEMPO 2600/2609 0400 FZFG BKN001
Impressum